createdAt,value
2018-02-08T00:01:58.901Z,101142.72
2018-02-08T00:04:26.628Z,101134.31
2018-02-08T00:06:54.251Z,101124.70
2018-02-08T00:09:21.672Z,101124.59
2018-02-08T00:11:49.234Z,101112.27
2018-02-08T00:14:16.694Z,101105.50
2018-02-08T00:16:44.248Z,101110.25
2018-02-08T00:19:11.729Z,101109.44
2018-02-08T00:21:39.201Z,101098.88
2018-02-08T00:24:07.547Z,101104.30
2018-02-08T00:26:34.711Z,101097.81
2018-02-08T00:29:02.265Z,101085.75
2018-02-08T00:31:31.351Z,101078.88
2018-02-08T00:33:58.734Z,101075.89
2018-02-08T00:36:26.385Z,101086.45
2018-02-08T00:38:53.714Z,101074.39
2018-02-08T00:41:21.214Z,101077.09
2018-02-08T00:43:48.628Z,101063.58
2018-02-08T00:46:15.913Z,101051.69
2018-02-08T00:48:43.584Z,101050.89
2018-02-08T00:51:10.708Z,101050.89
2018-02-08T00:53:38.363Z,101063.61
2018-02-08T00:56:05.715Z,101055.75
2018-02-08T00:58:33.211Z,101040.87
2018-02-08T01:01:00.656Z,101033.97
2018-02-08T01:03:28.013Z,101028.30
2018-02-08T01:05:55.567Z,101016.94
2018-02-08T01:08:22.718Z,101022.75
2018-02-08T01:10:50.230Z,101019.23
2018-02-08T01:13:17.663Z,101007.45
2018-02-08T01:15:44.898Z,101016.76
2018-02-08T01:18:12.592Z,101012.28
2018-02-08T01:20:39.743Z,101014.16
2018-02-08T01:23:07.374Z,100987.80
2018-02-08T01:25:34.609Z,100986.60
2018-02-08T01:28:01.755Z,100983.09
2018-02-08T01:30:29.594Z,100972.84
2018-02-08T01:32:56.714Z,100965.69
2018-02-08T01:35:24.392Z,100963.80
2018-02-08T01:37:51.687Z,100942.58
2018-02-08T01:40:19.045Z,100939.48
2018-02-08T01:42:46.599Z,100935.17
2018-02-08T01:45:13.796Z,100924.87
2018-02-08T01:47:41.532Z,100932.31
2018-02-08T01:50:08.746Z,100930.80
2018-02-08T01:52:36.380Z,100920.38
2018-02-08T01:55:03.742Z,100922.13
2018-02-08T01:57:32.805Z,100916.55
2018-02-08T02:00:00.666Z,100920.20
2018-02-08T02:02:28.237Z,100909.80
2018-02-08T02:04:55.641Z,100905.89
2018-02-08T02:07:23.361Z,100913.07
2018-02-08T02:09:50.795Z,100910.92
2018-02-08T02:12:18.604Z,100905.41
2018-02-08T02:14:45.787Z,100909.31
2018-02-08T02:17:13.708Z,100888.49
2018-02-08T02:19:41.240Z,100885.69
2018-02-08T02:22:08.726Z,100881.75
2018-02-08T02:24:36.585Z,100866.86
2018-02-08T02:27:03.789Z,100865.64
2018-02-08T02:29:31.456Z,100867.77
2018-02-08T02:31:58.761Z,100866.95
2018-02-08T02:34:26.354Z,100857.19
2018-02-08T02:36:53.766Z,100850.85
2018-02-08T02:39:21.542Z,100844.66
2018-02-08T02:41:48.742Z,100851.58
2018-02-08T02:44:16.371Z,100844.84
2018-02-08T02:46:43.757Z,100838.24
2018-02-08T02:49:11.333Z,100840.27
2018-02-08T02:51:38.728Z,100822.55
2018-02-08T02:54:06.224Z,100826.06
2018-02-08T02:56:33.684Z,100804.17
2018-02-08T02:59:01.205Z,100817.91
2018-02-08T03:01:28.620Z,100823.93
2018-02-08T03:03:55.803Z,100812.92
2018-02-08T03:06:23.621Z,100816.00
2018-02-08T03:08:51.258Z,100808.16
2018-02-08T03:11:18.719Z,100813.58
2018-02-08T03:13:46.354Z,100805.24
2018-02-08T03:16:13.761Z,100800.95
2018-02-08T03:18:41.406Z,100801.23
2018-02-08T03:21:08.737Z,100803.84
2018-02-08T03:23:36.346Z,100804.13
2018-02-08T03:26:03.743Z,100808.89
2018-02-08T03:28:31.346Z,100800.14
2018-02-08T03:30:58.721Z,100801.48
2018-02-08T03:33:26.340Z,100793.05
2018-02-08T03:35:53.708Z,100793.67
2018-02-08T03:38:21.156Z,100799.36
2018-02-08T03:40:48.580Z,100795.12
2018-02-08T03:43:15.704Z,100784.71
2018-02-08T03:45:43.245Z,100783.66
2018-02-08T03:48:10.648Z,100782.22
2018-02-08T03:50:38.244Z,100784.52
2018-02-08T03:53:05.653Z,100778.98
2018-02-08T03:55:33.194Z,100779.40
2018-02-08T03:58:00.640Z,100775.49
2018-02-08T04:00:28.284Z,100776.20
2018-02-08T04:02:55.736Z,100774.69
2018-02-08T04:05:23.366Z,100766.03
2018-02-08T04:07:50.777Z,100775.22
2018-02-08T04:10:18.459Z,100784.04
2018-02-08T04:12:45.768Z,100780.51
2018-02-08T04:15:13.566Z,100785.93
2018-02-08T04:17:40.748Z,100788.78
2018-02-08T04:20:08.433Z,100793.40
2018-02-08T04:22:35.735Z,100792.23
2018-02-08T04:25:03.358Z,100793.19
2018-02-08T04:27:30.701Z,100787.39
2018-02-08T04:29:58.070Z,100787.41
2018-02-08T04:32:25.583Z,100786.60
2018-02-08T04:34:52.752Z,100782.81
2018-02-08T04:37:20.622Z,100783.92
2018-02-08T04:39:47.937Z,100782.03
2018-02-08T04:42:15.594Z,100774.05
2018-02-08T04:44:42.759Z,100777.41
2018-02-08T04:47:10.362Z,100761.23
2018-02-08T04:49:37.725Z,100750.66
2018-02-08T04:52:05.257Z,100743.89
2018-02-08T04:54:32.689Z,100738.36
2018-02-08T04:57:00.250Z,100731.36
2018-02-08T04:59:27.627Z,100722.59
2018-02-08T05:01:54.803Z,100717.73
2018-02-08T05:04:22.351Z,100719.25
2018-02-08T05:06:49.734Z,100710.34
2018-02-08T05:09:17.253Z,100703.59
2018-02-08T05:11:44.716Z,100694.00
2018-02-08T05:14:12.344Z,100689.56
2018-02-08T05:16:39.766Z,100685.91
2018-02-08T05:19:07.415Z,100684.38
2018-02-08T05:21:34.738Z,100708.41
2018-02-08T05:24:02.418Z,100717.56
2018-02-08T05:26:29.743Z,100705.12
2018-02-08T05:28:57.394Z,100712.95
2018-02-08T05:31:24.703Z,100715.73
2018-02-08T05:33:52.203Z,100706.95
2018-02-08T05:36:19.702Z,100701.77
2018-02-08T05:38:47.371Z,100694.42
2018-02-08T05:41:14.733Z,100698.81
2018-02-08T05:43:42.264Z,100694.16
2018-02-08T05:46:09.701Z,100687.64
2018-02-08T05:48:37.372Z,100702.95
2018-02-08T05:51:04.720Z,100705.74
2018-02-08T05:53:32.576Z,100728.27
2018-02-08T05:55:59.774Z,100792.45
2018-02-08T05:58:27.395Z,100832.34
2018-02-08T06:00:54.751Z,100840.03
2018-02-08T06:03:22.313Z,100847.62
2018-02-08T06:05:49.704Z,100843.36
2018-02-08T06:08:17.340Z,100877.49
2018-02-08T06:10:44.692Z,100873.78
2018-02-08T06:13:12.346Z,100876.34
2018-02-08T06:15:39.702Z,100883.41
2018-02-08T06:18:07.348Z,100886.34
2018-02-08T06:20:34.696Z,100876.05
2018-02-08T06:23:02.261Z,100880.67
2018-02-08T06:25:29.757Z,100899.88
2018-02-08T06:27:57.366Z,100897.94
2018-02-08T06:30:24.743Z,100882.80
2018-02-08T06:32:52.356Z,100875.33
2018-02-08T06:35:19.714Z,100854.52
2018-02-08T06:37:47.336Z,100858.00
2018-02-08T06:40:14.723Z,100864.75
2018-02-08T06:42:42.392Z,100871.10
2018-02-08T06:45:09.782Z,100870.44
2018-02-08T06:47:37.680Z,100864.53
2018-02-08T06:50:05.372Z,100850.74
2018-02-08T06:52:32.771Z,100855.84
2018-02-08T06:55:00.650Z,100854.41
2018-02-08T06:57:28.335Z,100853.07
2018-02-08T06:59:55.789Z,100852.09
2018-02-08T07:02:23.688Z,100847.15
2018-02-08T07:04:51.399Z,100853.64
2018-02-08T07:07:18.799Z,100841.95
2018-02-08T07:09:46.686Z,100838.69
2018-02-08T07:12:14.254Z,100860.95
2018-02-08T07:14:41.736Z,100852.66
2018-02-08T07:17:09.501Z,100852.11
2018-02-08T07:19:36.820Z,100860.70
2018-02-08T07:22:04.711Z,100868.49
2018-02-08T07:24:32.396Z,100851.91
2018-02-08T07:26:59.810Z,100837.30
2018-02-08T07:29:27.713Z,100833.24
2018-02-08T07:31:55.328Z,100845.02
2018-02-08T07:34:22.748Z,100822.28
2018-02-08T07:36:50.377Z,100819.35
2018-02-08T07:39:17.739Z,100831.61
2018-02-08T07:41:45.548Z,100833.81
2018-02-08T07:44:12.817Z,100843.66
2018-02-08T07:46:40.709Z,100830.14
2018-02-08T07:49:08.324Z,100834.63
2018-02-08T07:51:35.737Z,100829.75
2018-02-08T07:54:03.434Z,100828.88
2018-02-08T07:56:30.769Z,100827.39
2018-02-08T07:58:58.657Z,100833.52
2018-02-08T08:01:26.352Z,100849.48
2018-02-08T08:03:53.763Z,100858.44
2018-02-08T08:06:21.572Z,100860.63
2018-02-08T08:08:48.739Z,100880.11
2018-02-08T08:11:16.385Z,100878.87
2018-02-08T08:13:43.683Z,100868.44
2018-02-08T08:16:11.230Z,100872.08
2018-02-08T08:18:38.673Z,100884.65
2018-02-08T08:21:06.217Z,100874.63
2018-02-08T08:23:33.637Z,100865.03
2018-02-08T08:26:00.904Z,100866.05
2018-02-08T08:28:28.640Z,100865.51
2018-02-08T08:30:56.193Z,100863.19
2018-02-08T08:33:23.631Z,100858.72
2018-02-08T08:35:50.815Z,100859.17
2018-02-08T08:38:18.615Z,100860.07
2018-02-08T08:40:45.912Z,100855.30
2018-02-08T08:43:13.681Z,100870.47
2018-02-08T08:45:40.987Z,100880.80
2018-02-08T08:48:08.591Z,100881.32
2018-02-08T08:50:35.768Z,100864.02
2018-02-08T08:53:03.333Z,100859.20
2018-02-08T08:55:30.699Z,100861.16
2018-02-08T08:57:58.341Z,100852.82
2018-02-08T09:00:25.746Z,100837.17
2018-02-08T09:02:53.341Z,100819.86
2018-02-08T09:05:20.669Z,100812.70
2018-02-08T09:07:48.337Z,100820.55
2018-02-08T09:10:15.707Z,100816.61
2018-02-08T09:12:43.225Z,100826.63
2018-02-08T09:15:10.650Z,100822.59
2018-02-08T09:17:38.112Z,100838.29
2018-02-08T09:20:05.589Z,100837.80
2018-02-08T09:22:32.746Z,100831.69
2018-02-08T09:25:00.333Z,100831.41
2018-02-08T09:27:27.672Z,100817.78
2018-02-08T09:29:55.222Z,100817.63
2018-02-08T09:32:22.627Z,100816.91
2018-02-08T09:34:49.961Z,100819.06
2018-02-08T09:37:17.591Z,100822.95
2018-02-08T09:39:44.735Z,100824.45
2018-02-08T09:42:12.253Z,100824.20
2018-02-08T09:44:39.692Z,100814.73
2018-02-08T09:47:07.313Z,100815.95
2018-02-08T09:49:34.695Z,100804.48
2018-02-08T09:52:02.000Z,100806.27
2018-02-08T09:54:29.564Z,100802.88
2018-02-08T09:56:56.670Z,100801.42
2018-02-08T10:01:41.583Z,100806.06
2018-02-08T10:04:08.666Z,100816.23
2018-02-08T10:06:36.195Z,100805.92
2018-02-08T10:09:03.656Z,100804.70
2018-02-08T10:11:30.921Z,100804.23
2018-02-08T10:13:58.653Z,100799.21
2018-02-08T10:16:25.920Z,100797.86
2018-02-08T10:18:53.601Z,100790.59
2018-02-08T10:21:20.831Z,100788.41
2018-02-08T10:23:48.598Z,100784.44
2018-02-08T10:26:15.702Z,100792.81
2018-02-08T10:28:43.190Z,100786.33
2018-02-08T10:31:10.613Z,100779.42
2018-02-08T10:33:37.790Z,100788.66
2018-02-08T10:36:05.416Z,100787.02
2018-02-08T10:38:32.750Z,100789.87
2018-02-08T10:41:00.402Z,100781.09
2018-02-08T10:43:27.727Z,100775.92
2018-02-08T10:45:55.231Z,100771.10
2018-02-08T10:48:22.693Z,100771.10
2018-02-08T10:50:50.219Z,100763.13
2018-02-08T10:53:17.664Z,100773.00
2018-02-08T10:55:45.174Z,100780.45
2018-02-08T10:58:12.631Z,100783.59
2018-02-08T11:00:39.808Z,100776.30
2018-02-08T11:03:07.560Z,100784.70
2018-02-08T11:05:34.704Z,100784.33
2018-02-08T11:08:02.359Z,100795.59
2018-02-08T11:10:29.684Z,100793.72
2018-02-08T11:12:57.193Z,100792.52
2018-02-08T11:15:24.686Z,100796.14
2018-02-08T11:17:52.200Z,100797.19
2018-02-08T11:20:19.599Z,100786.71
2018-02-08T11:22:46.780Z,100788.45
2018-02-08T11:25:14.361Z,100776.08
2018-02-08T11:27:41.685Z,100787.64
2018-02-08T11:30:08.890Z,100782.70
2018-02-08T11:32:36.623Z,100788.39
2018-02-08T11:35:03.903Z,100791.94
2018-02-08T11:37:31.630Z,100791.35
2018-02-08T11:39:58.819Z,100792.97
2018-02-08T11:42:26.542Z,100791.41
2018-02-08T11:44:53.674Z,100787.92
2018-02-08T11:47:21.327Z,100789.98
2018-02-08T11:49:48.728Z,100794.81
2018-02-08T11:52:16.205Z,100798.58
2018-02-08T11:54:43.628Z,100793.44
2018-02-08T11:57:10.945Z,100791.41
2018-02-08T11:59:38.577Z,100785.13
2018-02-08T12:02:05.705Z,100788.19
2018-02-08T12:04:33.245Z,100793.11
2018-02-08T12:07:00.649Z,100780.88
2018-02-08T12:09:28.186Z,100783.22
2018-02-08T12:11:55.584Z,100774.34
2018-02-08T12:14:22.688Z,100782.45
2018-02-08T12:16:50.239Z,100781.34
2018-02-08T12:19:17.632Z,100778.48
2018-02-08T12:21:45.216Z,100778.46
2018-02-08T12:24:12.669Z,100769.90
2018-02-08T12:26:39.888Z,100780.02
2018-02-08T12:29:07.618Z,100775.95
2018-02-08T12:31:34.909Z,100771.86
2018-02-08T12:34:02.687Z,100769.73
2018-02-08T12:36:30.195Z,100771.63
2018-02-08T12:38:57.590Z,100775.98
2018-02-08T12:41:24.749Z,100771.30
2018-02-08T12:43:52.333Z,100777.54
2018-02-08T12:46:19.711Z,100770.94
2018-02-08T12:48:47.365Z,100770.69
2018-02-08T12:51:14.690Z,100769.91
2018-02-08T12:53:42.368Z,100768.03
2018-02-08T12:56:09.705Z,100768.25
2018-02-08T12:58:37.268Z,100768.00
2018-02-08T13:01:04.692Z,100765.55
2018-02-08T13:03:32.359Z,100767.30
2018-02-08T13:05:59.752Z,100769.92
2018-02-08T13:08:27.365Z,100772.76
2018-02-08T13:10:54.745Z,100772.66
2018-02-08T13:13:22.622Z,100774.27
2018-02-08T13:15:50.202Z,100781.42
2018-02-08T13:18:17.635Z,100779.67
2018-02-08T13:20:45.214Z,100780.63
2018-02-08T13:23:12.703Z,100774.68
2018-02-08T13:25:40.390Z,100773.33
2018-02-08T13:28:07.781Z,100774.98
2018-02-08T13:30:35.604Z,100769.09
2018-02-08T13:33:02.720Z,100773.88
2018-02-08T13:35:30.256Z,100772.81
2018-02-08T13:37:57.689Z,100778.64
2018-02-08T13:40:25.358Z,100781.25
2018-02-08T13:42:52.710Z,100788.18
2018-02-08T13:45:20.188Z,100785.77
2018-02-08T13:47:47.632Z,100783.48
2018-02-08T13:50:14.932Z,100784.28
2018-02-08T13:52:42.588Z,100783.36
2018-02-08T13:55:09.765Z,100783.23
2018-02-08T13:57:37.571Z,100788.13
2018-02-08T14:00:04.735Z,100788.95
2018-02-08T14:02:32.610Z,100783.51
2018-02-08T14:04:59.887Z,100786.20
2018-02-08T14:07:27.673Z,100789.81
2018-02-08T14:09:55.202Z,100790.84
2018-02-08T14:12:22.664Z,100797.35
2018-02-08T14:14:50.370Z,100791.23
2018-02-08T14:17:17.752Z,100789.91
2018-02-08T14:19:45.470Z,100782.75
2018-02-08T14:22:12.789Z,100789.13
2018-02-08T14:24:40.603Z,100792.53
2018-02-08T14:27:07.775Z,100786.04
2018-02-08T14:29:35.644Z,100786.88
2018-02-08T14:32:02.994Z,100782.42
2018-02-08T14:34:30.637Z,100782.60
2018-02-08T14:36:58.351Z,100783.95
2018-02-08T14:39:25.756Z,100780.25
2018-02-08T14:41:53.416Z,100782.39
2018-02-08T14:44:20.747Z,100780.36
2018-02-08T14:46:48.398Z,100784.69
2018-02-08T14:49:15.785Z,100782.16
2018-02-08T14:51:43.678Z,100785.83
2018-02-08T14:54:11.346Z,100788.27
2018-02-08T14:56:38.719Z,100795.19
2018-02-08T14:59:06.551Z,100796.05
2018-02-08T15:01:33.746Z,100799.73
2018-02-08T15:04:01.421Z,100802.04
2018-02-08T15:06:28.719Z,100810.43
2018-02-08T15:08:56.340Z,100812.52
2018-02-08T15:11:23.673Z,100814.33
2018-02-08T15:13:51.347Z,100816.34
2018-02-08T15:16:18.700Z,100816.43
2018-02-08T15:18:46.172Z,100820.22
2018-02-08T15:21:13.594Z,100821.59
2018-02-08T15:23:40.770Z,100821.77
2018-02-08T15:26:08.336Z,100821.64
2018-02-08T15:28:35.710Z,100827.39
2018-02-08T15:31:03.216Z,100829.42
2018-02-08T15:33:30.690Z,100832.58
2018-02-08T15:35:58.366Z,100831.32
2018-02-08T15:38:25.731Z,100822.16
2018-02-08T15:40:53.378Z,100832.31
2018-02-08T15:43:20.730Z,100841.58
2018-02-08T15:45:48.341Z,100838.95
2018-02-08T15:48:15.729Z,100842.25
2018-02-08T15:50:43.397Z,100834.91
2018-02-08T15:53:10.702Z,100839.11
2018-02-08T15:55:37.909Z,100844.27
2018-02-08T15:58:05.603Z,100850.06
2018-02-08T16:00:32.745Z,100852.27
2018-02-08T16:03:00.318Z,100855.22
2018-02-08T16:05:27.730Z,100851.39
2018-02-08T16:07:55.217Z,100849.05
2018-02-08T16:10:22.678Z,100850.24
2018-02-08T16:12:50.016Z,100857.13
2018-02-08T16:15:17.514Z,100860.41
2018-02-08T16:17:44.718Z,100867.27
2018-02-08T16:20:12.255Z,100872.42
2018-02-08T16:22:39.665Z,100872.27
2018-02-08T16:25:06.922Z,100867.70
2018-02-08T16:27:34.574Z,100872.61
2018-02-08T16:30:01.691Z,100874.91
2018-02-08T16:32:29.181Z,100879.34
2018-02-08T16:34:56.603Z,100875.39
2018-02-08T16:37:23.783Z,100880.00
2018-02-08T16:39:51.348Z,100874.15
2018-02-08T16:42:18.735Z,100881.84
2018-02-08T16:44:46.386Z,100883.56
2018-02-08T16:47:13.744Z,100880.98
2018-02-08T16:49:41.322Z,100880.16
2018-02-08T16:52:08.680Z,100884.92
2018-02-08T16:54:36.177Z,100889.55
2018-02-08T16:57:03.687Z,100893.63
2018-02-08T16:59:31.330Z,100894.66
2018-02-08T17:01:58.755Z,100886.27
2018-02-08T17:04:26.390Z,100878.55
2018-02-08T17:06:53.691Z,100885.70
2018-02-08T17:09:21.269Z,100884.63
2018-02-08T17:11:48.672Z,100888.30
2018-02-08T17:14:16.201Z,100888.59
2018-02-08T17:16:43.614Z,100894.86
2018-02-08T17:19:10.811Z,100895.24
2018-02-08T17:21:38.620Z,100894.58
2018-02-08T17:24:06.232Z,100895.80
2018-02-08T17:26:33.659Z,100900.17
2018-02-08T17:29:01.249Z,100898.83
2018-02-08T17:31:28.664Z,100900.47
2018-02-08T17:33:56.419Z,100899.83
2018-02-08T17:36:23.675Z,100900.67
2018-02-08T17:38:50.920Z,100905.42
2018-02-08T17:41:18.571Z,100904.36
2018-02-08T17:43:45.675Z,100898.95
2018-02-08T17:46:12.891Z,100906.41
2018-02-08T17:48:40.558Z,100912.59
2018-02-08T17:51:07.700Z,100918.25
2018-02-08T17:53:35.398Z,100909.68
2018-02-08T17:58:42.617Z,100903.92
2018-02-08T18:01:09.821Z,100913.12
2018-02-08T18:03:37.449Z,100914.59
2018-02-08T18:06:04.687Z,100916.25
2018-02-08T18:08:31.907Z,100922.89
2018-02-08T18:10:59.606Z,100925.37
2018-02-08T18:13:26.909Z,100927.50
2018-02-08T18:15:54.583Z,100926.69
2018-02-08T18:18:21.743Z,100920.03
2018-02-08T18:20:49.389Z,100925.83
2018-02-08T18:23:16.723Z,100927.09
2018-02-08T18:25:44.345Z,100940.08
2018-02-08T18:28:11.663Z,100943.72
2018-02-08T18:30:39.203Z,100943.02
2018-02-08T18:33:06.608Z,100946.27
2018-02-08T18:35:33.941Z,100939.75
2018-02-08T18:38:01.591Z,100943.56
2018-02-08T18:40:28.768Z,100946.42
2018-02-08T18:42:56.533Z,100952.78
2018-02-08T18:45:23.707Z,100956.70
2018-02-08T18:47:51.251Z,100959.81
2018-02-08T18:50:18.692Z,100956.61
2018-02-08T18:52:46.360Z,100959.43
2018-02-08T18:55:13.735Z,100956.88
2018-02-08T18:57:41.381Z,100967.70
2018-02-08T19:00:08.745Z,100966.20
2018-02-08T19:02:36.341Z,100960.94
2018-02-08T19:05:03.746Z,100966.58
2018-02-08T19:07:31.551Z,100960.59
2018-02-08T19:09:58.745Z,100966.38
2018-02-08T19:12:26.343Z,100981.41
2018-02-08T19:14:53.798Z,100976.97
2018-02-08T19:17:21.585Z,100972.37
2018-02-08T19:19:48.786Z,100972.13
2018-02-08T19:22:16.634Z,100978.48
2018-02-08T19:24:43.927Z,100982.55
2018-02-08T19:27:11.685Z,100983.36
2018-02-08T19:29:39.352Z,100992.68
2018-02-08T19:32:06.728Z,100995.95
2018-02-08T19:34:34.571Z,100997.85
2018-02-08T19:37:01.903Z,101000.41
2018-02-08T19:39:29.877Z,101001.34
2018-02-08T19:41:57.619Z,100995.92
2018-02-08T19:44:24.929Z,101009.16
2018-02-08T19:46:52.586Z,101016.05
2018-02-08T19:49:19.694Z,101019.45
2018-02-08T19:51:47.183Z,101022.97
2018-02-08T19:54:14.591Z,101024.73
2018-02-08T19:56:41.745Z,101018.78
2018-02-08T19:59:09.388Z,100995.93
2018-02-08T20:01:36.698Z,101000.28
2018-02-08T20:04:04.236Z,101002.99
2018-02-08T20:06:31.653Z,100991.09
2018-02-08T20:08:58.879Z,100998.70
2018-02-08T20:11:26.583Z,100995.02
2018-02-08T20:13:53.672Z,100985.30
2018-02-08T20:16:21.327Z,100979.37
2018-02-08T20:18:48.697Z,100975.16
2018-02-08T20:21:16.341Z,100976.36
2018-02-08T20:23:43.692Z,100982.31
2018-02-08T20:26:11.664Z,100985.14
2018-02-08T20:28:39.210Z,100984.17
2018-02-08T20:31:06.643Z,100987.70
2018-02-08T20:33:33.893Z,100988.75
2018-02-08T20:36:01.521Z,100978.08
2018-02-08T20:38:28.692Z,100979.83
2018-02-08T20:40:55.994Z,100978.62
2018-02-08T20:43:23.599Z,100979.83
2018-02-08T20:45:50.719Z,100978.34
2018-02-08T20:48:18.383Z,100975.25
2018-02-08T20:50:45.824Z,100971.35
2018-02-08T20:53:13.602Z,100977.81
2018-02-08T20:55:40.834Z,100972.70
2018-02-08T20:58:08.632Z,100974.19
2018-02-08T21:00:35.853Z,100972.31
2018-02-08T21:03:03.646Z,100975.29
2018-02-08T21:05:31.190Z,100975.84
2018-02-08T21:07:58.675Z,100989.90
2018-02-08T21:10:26.354Z,100982.73
2018-02-08T21:12:53.723Z,100975.14
2018-02-08T21:15:21.267Z,100973.68
2018-02-08T21:17:48.668Z,100973.02
2018-02-08T21:20:16.339Z,100970.97
2018-02-08T21:22:43.686Z,100971.22
2018-02-08T21:25:11.204Z,100973.92
2018-02-08T21:27:38.689Z,100976.77
2018-02-08T21:30:06.255Z,100968.81
2018-02-08T21:32:33.656Z,100968.95
2018-02-08T21:35:01.024Z,100969.21
2018-02-08T21:37:28.582Z,100963.80
2018-02-08T21:39:55.719Z,100965.02
2018-02-08T21:42:23.258Z,100968.27
2018-02-08T21:44:50.683Z,100973.66
2018-02-08T21:47:18.194Z,100968.25
2018-02-08T21:49:45.706Z,100968.91
2018-02-08T21:52:13.331Z,100975.55
2018-02-08T21:54:40.743Z,100971.22
2018-02-08T21:57:08.382Z,100975.02
2018-02-08T21:59:35.776Z,100974.02
2018-02-08T22:02:03.667Z,100974.68
2018-02-08T22:04:31.587Z,100979.30
2018-02-08T22:06:58.764Z,100975.38
2018-02-08T22:09:26.534Z,100984.16
2018-02-08T22:11:53.755Z,100988.23
2018-02-08T22:14:21.690Z,100985.27
2018-02-08T22:16:49.366Z,100976.06
2018-02-08T22:19:16.776Z,100980.83
2018-02-08T22:21:44.647Z,100974.33
2018-02-08T22:24:12.007Z,100981.08
2018-02-08T22:26:39.645Z,100980.43
2018-02-08T22:29:07.237Z,100979.63
2018-02-08T22:31:34.725Z,100977.73
2018-02-08T22:34:02.547Z,100975.80
2018-02-08T22:36:29.744Z,100975.45
2018-02-08T22:38:57.405Z,100980.45
2018-02-08T22:41:24.781Z,100978.12
2018-02-08T22:43:52.558Z,100970.26
2018-02-08T22:46:19.776Z,100974.32
2018-02-08T22:48:47.631Z,100974.73
2018-02-08T22:51:14.895Z,100968.28
2018-02-08T22:53:42.664Z,100970.05
2018-02-08T22:56:10.200Z,100980.34
2018-02-08T22:58:37.683Z,100978.75
2018-02-08T23:01:05.227Z,100980.80
2018-02-08T23:03:32.680Z,100970.09
2018-02-08T23:06:00.221Z,100967.38
2018-02-08T23:08:27.660Z,100966.59
2018-02-08T23:10:55.630Z,100970.80
2018-02-08T23:13:22.898Z,100970.00
2018-02-08T23:15:50.581Z,100970.95
2018-02-08T23:18:17.743Z,100960.91
2018-02-08T23:20:45.374Z,100960.88
2018-02-08T23:23:12.751Z,100965.33
2018-02-08T23:25:40.357Z,100954.11
2018-02-08T23:28:07.754Z,100958.05
2018-02-08T23:30:35.371Z,100957.64
2018-02-08T23:33:02.749Z,100955.49
2018-02-08T23:35:30.355Z,100959.41
2018-02-08T23:37:57.750Z,100964.56
2018-02-08T23:40:25.364Z,100971.33
2018-02-08T23:42:52.759Z,100977.00
2018-02-08T23:45:20.361Z,100993.23
2018-02-08T23:47:47.733Z,100991.77
2018-02-08T23:50:15.230Z,100996.90
2018-02-08T23:52:42.687Z,100995.14
2018-02-08T23:55:10.240Z,100999.34
2018-02-08T23:57:37.717Z,101009.87
